Time;durP1;ratioP1;P1;durP2;ratioP2;P2;SDS_P1;SDS_P2;PMS_P1;PMS_P2;Temp;Humidity;BMP_temperature;BMP_pressure;BME280_temperature;BME280_humidity;BME280_pressure;Samples;Min_cycle;Max_cycle;Signal;HPM_P1;HPM_P2
2021/03/04 00:00:06;;;;;;;90.43;43.80;;;5.10;99.90;;;;;;4990491;28;20190;-83
2021/03/04 00:02:32;;;;;;;84.53;41.50;;;5.10;99.90;;;;;;5000488;28;20213;-84
2021/03/04 00:04:59;;;;;;;82.07;39.53;;;5.10;99.90;;;;;;4987170;28;20203;-81
2021/03/04 00:07:26;;;;;;;79.25;39.60;;;5.10;99.90;;;;;;4983328;28;20238;-82
2021/03/04 00:09:53;;;;;;;62.08;35.33;;;5.10;99.90;;;;;;5000409;28;20213;-83
2021/03/04 00:12:19;;;;;;;53.53;32.97;;;5.20;99.90;;;;;;4993084;28;20279;-83
2021/03/04 00:14:46;;;;;;;70.40;39.22;;;5.10;99.90;;;;;;4982148;28;20234;-83
2021/03/04 00:17:13;;;;;;;80.05;39.60;;;5.10;99.90;;;;;;5001184;28;20214;-84
2021/03/04 00:19:40;;;;;;;73.20;40.83;;;5.10;99.90;;;;;;4999296;28;20210;-85
2021/03/04 00:22:06;;;;;;;75.75;39.95;;;5.10;99.90;;;;;;4993738;28;20216;-83
2021/03/04 00:24:33;;;;;;;85.53;41.10;;;5.10;99.90;;;;;;4986440;28;20210;-84
2021/03/04 00:29:27;;;;;;;106.22;54.00;;;5.10;99.90;;;;;;4969361;28;20210;-73
2021/03/04 00:31:55;;;;;;;84.28;47.20;;;5.10;99.90;;;;;;4967510;28;20206;-73
2021/03/04 00:34:22;;;;;;;112.28;56.33;;;5.10;99.90;;;;;;4970079;28;20696;-72
2021/03/04 00:36:48;;;;;;;89.97;47.42;;;5.10;99.90;;;;;;4975679;28;20206;-71
2021/03/04 00:39:15;;;;;;;71.13;41.33;;;5.10;99.90;;;;;;4967945;28;20198;-71
2021/03/04 00:41:41;;;;;;;97.78;48.05;;;5.20;99.90;;;;;;4975272;28;20659;-72
2021/03/04 00:44:09;;;;;;;96.75;49.42;;;5.20;99.90;;;;;;4975325;28;20230;-72
2021/03/04 00:46:35;;;;;;;80.07;43.83;;;5.20;99.90;;;;;;4972207;28;20214;-72
2021/03/04 00:49:03;;;;;;;83.75;44.08;;;5.20;99.90;;;;;;4967704;28;20215;-72
2021/03/04 00:51:30;;;;;;;103.03;48.13;;;5.20;99.90;;;;;;4974243;28;20214;-72
2021/03/04 00:53:57;;;;;;;97.82;51.35;;;5.30;99.90;;;;;;4966191;28;20269;-72
2021/03/04 00:56:23;;;;;;;113.75;56.10;;;5.20;99.90;;;;;;4974787;28;20233;-73
2021/03/04 00:58:50;;;;;;;132.35;64.65;;;5.30;99.90;;;;;;4974779;28;20206;-72
2021/03/04 01:01:17;;;;;;;145.07;68.05;;;5.30;99.90;;;;;;4975014;28;20289;-73
2021/03/04 01:03:44;;;;;;;129.45;61.95;;;5.40;99.90;;;;;;4974055;28;20218;-72
2021/03/04 01:06:11;;;;;;;93.72;49.42;;;5.40;99.90;;;;;;4974863;28;20218;-70
2021/03/04 01:08:38;;;;;;;84.03;46.35;;;5.40;99.90;;;;;;4974442;28;20225;-69
2021/03/04 01:11:05;;;;;;;77.15;43.97;;;5.40;99.90;;;;;;4974793;28;20206;-70
2021/03/04 01:13:31;;;;;;;59.78;37.47;;;5.30;99.90;;;;;;4974307;28;20252;-71
2021/03/04 01:15:58;;;;;;;69.00;37.67;;;5.30;99.90;;;;;;4972026;28;20225;-71
2021/03/04 01:18:25;;;;;;;67.75;38.60;;;5.30;99.90;;;;;;4974230;28;20225;-69
2021/03/04 01:20:51;;;;;;;62.60;36.97;;;5.20;99.90;;;;;;4966525;28;20214;-72
2021/03/04 01:23:19;;;;;;;76.90;40.83;;;5.20;99.90;;;;;;4966685;28;20222;-71
2021/03/04 01:25:45;;;;;;;75.82;44.70;;;5.20;99.90;;;;;;4974989;28;20285;-71
2021/03/04 01:28:12;;;;;;;96.00;46.67;;;5.30;99.90;;;;;;4973958;28;20224;-71
2021/03/04 01:30:38;;;;;;;93.43;45.38;;;5.30;99.90;;;;;;4972658;28;20210;-71
2021/03/04 01:33:06;;;;;;;83.70;46.35;;;5.20;99.90;;;;;;4973649;28;20225;-72
2021/03/04 01:35:32;;;;;;;80.82;43.47;;;5.10;99.90;;;;;;4974771;28;20198;-72
2021/03/04 01:37:59;;;;;;;76.85;40.85;;;5.10;99.90;;;;;;4972541;28;20210;-72
2021/03/04 01:40:26;;;;;;;128.70;58.90;;;5.20;99.90;;;;;;4973385;28;20198;-71
2021/03/04 01:42:54;;;;;;;97.20;49.80;;;5.20;99.90;;;;;;4974120;28;20230;-71
2021/03/04 01:45:21;;;;;;;124.13;56.63;;;5.20;99.90;;;;;;4966819;28;20280;-70
2021/03/04 01:47:50;;;;;;;104.25;51.65;;;5.20;99.90;;;;;;4973660;28;20273;-70
2021/03/04 01:50:18;;;;;;;105.75;48.97;;;5.20;99.90;;;;;;4973182;28;20199;-70
2021/03/04 01:52:45;;;;;;;92.60;45.67;;;5.20;99.90;;;;;;4974064;28;20226;-72
2021/03/04 01:55:13;;;;;;;110.18;52.33;;;5.10;99.90;;;;;;4973848;28;20195;-72
2021/03/04 01:57:43;;;;;;;84.88;43.30;;;5.10;99.90;;;;;;4969298;28;20210;-72
2021/03/04 02:00:11;;;;;;;83.75;41.10;;;5.00;99.90;;;;;;4974986;28;20209;-73
2021/03/04 02:02:38;;;;;;;73.57;37.78;;;5.00;99.90;;;;;;4972023;28;20245;-72
2021/03/04 02:05:08;;;;;;;98.38;43.95;;;4.90;99.90;;;;;;4974178;28;20229;-71
2021/03/04 02:07:41;;;;;;;67.90;37.67;;;5.00;99.90;;;;;;4974464;28;20214;-72
2021/03/04 02:10:13;;;;;;;62.92;34.65;;;5.00;99.90;;;;;;4973418;28;20210;-72
2021/03/04 02:12:52;;;;;;;57.38;30.25;;;5.00;99.90;;;;;;4972344;28;20225;-72
2021/03/04 02:15:26;;;;;;;63.10;34.70;;;5.00;99.90;;;;;;4970683;28;20668;-70
2021/03/04 02:17:55;;;;;;;62.35;34.92;;;5.00;99.90;;;;;;4970487;28;20210;-72
2021/03/04 02:20:32;;;;;;;64.43;34.05;;;5.10;99.90;;;;;;4972976;28;20238;-72
2021/03/04 02:23:17;;;;;;;70.65;35.60;;;5.10;99.90;;;;;;4972139;28;20225;-72
2021/03/04 02:25:56;;;;;;;61.90;31.90;;;5.00;99.90;;;;;;4972390;28;20313;-71
2021/03/04 02:28:26;;;;;;;57.35;30.60;;;5.00;99.90;;;;;;4958374;28;20210;-71
2021/03/04 02:30:54;;;;;;;51.45;30.05;;;5.00;99.90;;;;;;4973696;28;20221;-71
2021/03/04 02:33:25;;;;;;;48.05;27.17;;;5.00;99.90;;;;;;4972859;28;20222;-71
2021/03/04 02:35:54;;;;;;;48.13;28.95;;;5.10;99.90;;;;;;4974006;28;20562;-71
2021/03/04 02:38:22;;;;;;;52.00;28.45;;;5.10;99.90;;;;;;4965689;28;20198;-71
2021/03/04 02:40:52;;;;;;;49.03;25.50;;;5.20;99.90;;;;;;4973210;28;20206;-72
2021/03/04 02:43:22;;;;;;;53.50;27.00;;;5.10;99.90;;;;;;4960908;28;20273;-71
2021/03/04 02:45:51;;;;;;;47.35;27.58;;;5.10;99.90;;;;;;4973205;28;20292;-71
2021/03/04 02:48:19;;;;;;;51.17;24.50;;;5.10;99.90;;;;;;4969799;28;20214;-71
2021/03/04 02:50:47;;;;;;;46.28;25.73;;;5.10;99.90;;;;;;4973971;28;20210;-72
2021/03/04 02:53:15;;;;;;;48.85;26.52;;;5.10;99.90;;;;;;4972554;28;20230;-71
2021/03/04 02:55:42;;;;;;;50.30;24.38;;;5.20;99.90;;;;;;4972934;28;20198;-71
2021/03/04 02:58:09;;;;;;;51.03;25.35;;;5.10;99.90;;;;;;4973143;28;20202;-71
2021/03/04 03:00:37;;;;;;;44.75;22.58;;;5.00;99.90;;;;;;4973097;28;20254;-72
2021/03/04 03:03:09;;;;;;;53.70;26.20;;;5.00;99.90;;;;;;4973192;28;20226;-72
2021/03/04 03:05:39;;;;;;;55.53;28.80;;;4.90;99.90;;;;;;4968218;28;20832;-71
2021/03/04 03:08:07;;;;;;;53.28;28.10;;;4.80;99.90;;;;;;4972753;28;20326;-70
2021/03/04 03:10:35;;;;;;;44.53;24.60;;;4.90;99.90;;;;;;4970843;28;20207;-71
2021/03/04 03:13:03;;;;;;;42.90;23.15;;;4.90;99.90;;;;;;4972925;28;20241;-71
2021/03/04 03:15:30;;;;;;;49.65;24.13;;;4.90;99.90;;;;;;4973162;28;20350;-72
2021/03/04 03:17:57;;;;;;;43.25;25.42;;;4.90;99.90;;;;;;4973390;28;20210;-71
2021/03/04 03:20:25;;;;;;;42.45;23.52;;;4.80;99.90;;;;;;4972732;28;20212;-71
2021/03/04 03:22:53;;;;;;;41.47;24.70;;;4.80;99.90;;;;;;4964874;28;20439;-70
2021/03/04 03:25:20;;;;;;;41.13;25.70;;;4.80;99.90;;;;;;4965541;28;20225;-71
2021/03/04 03:27:47;;;;;;;42.42;25.45;;;4.90;99.90;;;;;;4976233;28;20225;-71
2021/03/04 03:30:18;;;;;;;44.25;25.15;;;4.90;99.90;;;;;;4975514;28;20210;-71
2021/03/04 03:32:47;;;;;;;48.92;27.55;;;5.00;99.90;;;;;;4974636;28;20226;-71
2021/03/04 03:35:15;;;;;;;53.80;26.40;;;5.00;99.90;;;;;;4974908;28;20202;-72
2021/03/04 03:37:45;;;;;;;60.65;33.08;;;5.00;99.90;;;;;;4976190;28;20261;-69
2021/03/04 03:40:14;;;;;;;59.38;31.40;;;5.00;99.90;;;;;;4974800;28;20206;-72
2021/03/04 03:42:43;;;;;;;59.25;33.25;;;5.00;99.90;;;;;;4971337;28;20277;-70
2021/03/04 03:45:15;;;;;;;64.45;31.73;;;5.10;99.90;;;;;;4975830;28;20214;-71
2021/03/04 03:47:42;;;;;;;50.17;27.55;;;5.10;99.90;;;;;;4973300;28;20230;-71
2021/03/04 03:50:14;;;;;;;45.78;26.55;;;5.10;99.90;;;;;;4968120;28;20209;-71
2021/03/04 03:52:43;;;;;;;52.15;28.45;;;5.10;99.90;;;;;;4972989;28;20233;-70
2021/03/04 03:55:13;;;;;;;48.58;27.38;;;5.10;99.90;;;;;;4968210;28;20572;-71
2021/03/04 03:57:41;;;;;;;50.10;28.20;;;5.10;99.90;;;;;;4974364;28;20198;-70
2021/03/04 04:00:09;;;;;;;49.65;26.92;;;5.20;99.90;;;;;;4969547;28;20581;-72
2021/03/04 04:02:37;;;;;;;49.92;28.55;;;5.20;99.90;;;;;;4975683;28;20226;-70
2021/03/04 04:05:05;;;;;;;49.13;27.65;;;5.30;99.90;;;;;;4976166;28;20230;-70
2021/03/04 04:07:32;;;;;;;45.88;26.92;;;5.20;99.90;;;;;;4976401;28;20261;-71
2021/03/04 04:10:01;;;;;;;36.15;23.98;;;5.10;99.90;;;;;;4972878;28;20668;-72
2021/03/04 04:12:29;;;;;;;49.42;27.88;;;5.10;99.90;;;;;;4975375;28;20284;-71
2021/03/04 04:14:55;;;;;;;48.25;28.05;;;5.10;99.90;;;;;;4973066;28;20209;-71
2021/03/04 04:17:22;;;;;;;41.75;24.77;;;5.10;99.90;;;;;;4972256;28;20203;-72
2021/03/04 04:19:49;;;;;;;43.70;25.55;;;5.10;99.90;;;;;;4971673;28;20209;-71
2021/03/04 04:22:17;;;;;;;39.92;24.77;;;5.10;99.90;;;;;;4972035;28;20214;-72
2021/03/04 04:24:44;;;;;;;45.33;25.13;;;5.00;99.90;;;;;;4975989;28;20257;-72
2021/03/04 04:27:12;;;;;;;40.63;24.70;;;5.00;99.90;;;;;;4974626;28;20568;-72
2021/03/04 04:29:40;;;;;;;47.35;26.15;;;5.10;99.90;;;;;;4969065;28;20202;-72
2021/03/04 04:32:08;;;;;;;46.22;25.83;;;5.10;99.90;;;;;;4975062;28;20213;-73
2021/03/04 04:34:34;;;;;;;47.25;29.05;;;5.10;99.90;;;;;;4974633;28;20203;-71
2021/03/04 04:37:01;;;;;;;56.72;31.13;;;5.10;99.90;;;;;;4975515;28;20257;-72
2021/03/04 04:39:30;;;;;;;49.20;29.15;;;5.20;99.90;;;;;;4973152;28;20202;-72
2021/03/04 04:41:57;;;;;;;62.90;31.35;;;5.10;99.90;;;;;;4974760;28;20244;-72
2021/03/04 04:44:23;;;;;;;54.42;27.92;;;5.20;99.90;;;;;;4975151;28;20285;-72
2021/03/04 04:46:52;;;;;;;57.58;28.95;;;5.10;99.90;;;;;;4975364;28;20292;-71
2021/03/04 04:49:18;;;;;;;48.10;27.50;;;5.10;99.90;;;;;;4974709;28;20226;-72
2021/03/04 04:51:45;;;;;;;37.47;23.55;;;5.00;99.90;;;;;;4975552;28;20206;-72
2021/03/04 04:54:12;;;;;;;42.45;23.73;;;5.00;99.90;;;;;;4973079;28;20226;-71
2021/03/04 04:56:38;;;;;;;39.20;23.58;;;5.00;99.90;;;;;;4969899;28;20206;-71
2021/03/04 04:59:05;;;;;;;38.72;20.95;;;5.00;99.90;;;;;;4974399;28;20216;-71
2021/03/04 05:01:34;;;;;;;37.83;24.35;;;5.00;99.90;;;;;;4972830;28;20214;-72
2021/03/04 05:04:01;;;;;;;43.22;23.63;;;5.10;99.90;;;;;;4973419;28;20693;-72
2021/03/04 05:06:27;;;;;;;32.38;21.30;;;5.10;99.90;;;;;;4974796;28;20223;-72
2021/03/04 05:08:54;;;;;;;41.30;23.23;;;5.10;99.90;;;;;;4974175;28;20213;-72
2021/03/04 05:11:21;;;;;;;39.90;24.95;;;5.10;99.90;;;;;;4974734;28;20661;-73
2021/03/04 05:13:47;;;;;;;38.65;21.77;;;5.10;99.90;;;;;;4974649;28;20249;-71
2021/03/04 05:16:14;;;;;;;37.80;21.95;;;5.10;99.90;;;;;;4973308;28;20210;-71
2021/03/04 05:18:41;;;;;;;37.25;22.38;;;5.10;99.90;;;;;;4968976;28;20253;-72
2021/03/04 05:21:09;;;;;;;35.90;21.33;;;5.00;99.90;;;;;;4971782;28;20212;-72
2021/03/04 05:23:37;;;;;;;43.35;23.33;;;5.00;99.90;;;;;;4962003;28;20228;-72
2021/03/04 05:26:04;;;;;;;42.17;22.83;;;5.00;99.90;;;;;;4971974;28;20229;-73
2021/03/04 05:28:30;;;;;;;44.33;23.88;;;5.00;99.90;;;;;;4965266;28;20674;-72
2021/03/04 05:30:57;;;;;;;44.72;23.75;;;5.00;99.90;;;;;;4971130;28;20276;-73
2021/03/04 05:33:24;;;;;;;40.00;23.65;;;5.00;99.90;;;;;;4970565;28;20229;-72
2021/03/04 05:35:50;;;;;;;37.38;21.05;;;4.90;99.90;;;;;;4973933;28;20202;-71
2021/03/04 05:38:18;;;;;;;40.10;22.33;;;4.90;99.90;;;;;;4966147;28;20206;-72
2021/03/04 05:40:45;;;;;;;43.20;23.10;;;4.90;99.90;;;;;;4968191;28;20214;-72
2021/03/04 05:43:11;;;;;;;39.65;22.42;;;4.90;99.90;;;;;;4972704;28;20230;-72
2021/03/04 05:45:40;;;;;;;34.90;21.20;;;4.80;99.90;;;;;;4974628;28;20233;-72
2021/03/04 05:48:09;;;;;;;42.50;23.05;;;4.80;99.90;;;;;;4972399;28;20222;-72
2021/03/04 05:50:43;;;;;;;43.45;23.58;;;4.90;99.90;;;;;;4967753;28;20329;-72
2021/03/04 05:53:13;;;;;;;35.38;22.20;;;4.90;99.90;;;;;;4973917;28;20724;-72
2021/03/04 05:55:44;;;;;;;35.75;22.73;;;5.00;99.90;;;;;;4974083;28;20194;-72
2021/03/04 05:58:12;;;;;;;39.05;21.35;;;5.00;99.90;;;;;;4969932;28;20679;-73
2021/03/04 06:00:40;;;;;;;43.30;23.25;;;5.10;99.90;;;;;;4967519;28;20240;-74
2021/03/04 06:03:07;;;;;;;35.58;23.17;;;5.00;99.90;;;;;;4967962;28;20261;-73
2021/03/04 06:05:34;;;;;;;41.75;25.30;;;5.10;99.90;;;;;;4969593;28;20215;-69
2021/03/04 06:08:02;;;;;;;41.50;21.48;;;5.00;99.90;;;;;;4969162;28;20206;-69
2021/03/04 06:10:30;;;;;;;45.00;23.52;;;5.00;99.90;;;;;;4972453;28;20278;-69
2021/03/04 06:12:57;;;;;;;38.80;21.60;;;5.10;99.90;;;;;;4972107;28;20347;-68
2021/03/04 06:15:26;;;;;;;33.70;21.95;;;5.00;99.90;;;;;;4973659;28;20199;-70
2021/03/04 06:17:53;;;;;;;31.88;19.80;;;5.00;99.90;;;;;;4972120;28;20210;-70
2021/03/04 06:20:20;;;;;;;30.58;18.55;;;5.00;99.90;;;;;;4967173;28;20205;-69
2021/03/04 06:22:48;;;;;;;34.35;18.83;;;5.10;99.90;;;;;;4962111;28;20285;-69
2021/03/04 06:25:21;;;;;;;34.92;19.00;;;5.00;99.90;;;;;;4972201;28;20233;-69
2021/03/04 06:27:48;;;;;;;40.50;21.50;;;5.00;99.90;;;;;;4966267;28;20265;-71
2021/03/04 06:30:17;;;;;;;42.20;23.20;;;5.00;99.90;;;;;;5044223;23;20616;-70
2021/03/04 06:32:55;;;;;;;34.85;20.42;;;5.10;99.90;;;;;;4948073;28;20227;-70
2021/03/04 06:35:24;;;;;;;34.72;20.83;;;5.00;99.90;;;;;;4930149;28;20199;-70
2021/03/04 06:37:51;;;;;;;35.17;16.70;;;5.00;99.90;;;;;;4916778;29;20711;-71
2021/03/04 06:40:21;;;;;;;30.00;20.27;;;4.90;99.90;;;;;;4948595;29;20499;-70
2021/03/04 06:42:48;;;;;;;42.42;21.58;;;5.10;99.90;;;;;;4917919;29;20939;-69
2021/03/04 06:45:30;;;;;;;38.65;20.88;;;5.20;99.90;;;;;;4940658;29;20244;-70
2021/03/04 06:48:08;;;;;;;27.45;17.10;;;5.20;99.90;;;;;;4933474;29;20208;-70
2021/03/04 06:50:36;;;;;;;29.90;18.33;;;5.10;99.90;;;;;;4932122;29;20628;-70
2021/03/04 06:53:16;;;;;;;18.80;14.90;;;5.10;99.90;;;;;;4939543;29;20644;-70
2021/03/04 06:55:50;;;;;;;21.60;14.30;;;5.10;99.90;;;;;;4940249;29;20207;-70
2021/03/04 06:58:24;;;;;;;57.60;21.50;;;5.10;99.90;;;;;;4944816;28;20252;-70
2021/03/04 07:01:05;;;;;;;21.42;14.13;;;5.10;99.90;;;;;;4940413;28;20593;-71
2021/03/04 07:03:37;;;;;;;20.42;12.60;;;5.10;99.90;;;;;;4930621;29;20227;-69
2021/03/04 07:06:05;;;;;;;21.63;13.63;;;5.10;99.90;;;;;;4945283;28;20222;-69
2021/03/04 07:08:34;;;;;;;24.75;11.15;;;5.10;99.90;;;;;;4930786;29;20257;-69
2021/03/04 07:11:03;;;;;;;20.25;11.48;;;5.10;99.90;;;;;;4940336;29;20200;-68
2021/03/04 07:13:32;;;;;;;18.80;11.15;;;5.20;99.90;;;;;;4948814;29;20226;-69
2021/03/04 07:16:04;;;;;;;19.50;11.75;;;5.20;99.90;;;;;;4940588;29;20236;-69
2021/03/04 07:18:34;;;;;;;14.35;11.85;;;5.30;99.90;;;;;;4942958;29;20615;-69
2021/03/04 07:21:02;;;;;;;17.48;11.15;;;5.30;99.90;;;;;;4943099;29;20213;-70
2021/03/04 07:23:29;;;;;;;18.58;10.65;;;5.30;99.90;;;;;;4942660;29;20223;-70
2021/03/04 07:25:57;;;;;;;16.48;9.00;;;5.40;99.90;;;;;;4938389;29;20258;-69
2021/03/04 07:28:27;;;;;;;18.85;12.27;;;5.50;99.90;;;;;;4944177;29;20206;-69
2021/03/04 07:30:54;;;;;;;14.52;9.23;;;5.50;99.90;;;;;;4936649;29;20691;-70
2021/03/04 07:33:22;;;;;;;16.80;9.18;;;5.50;99.90;;;;;;4933470;29;20226;-70
2021/03/04 07:35:49;;;;;;;13.45;10.07;;;5.50;99.90;;;;;;4935532;29;20211;-71
2021/03/04 07:38:27;;;;;;;17.42;9.30;;;5.50;99.90;;;;;;4940719;29;20269;-69
2021/03/04 07:41:01;;;;;;;15.10;10.40;;;5.50;99.90;;;;;;4945015;28;20602;-70
2021/03/04 07:43:27;;;;;;;16.13;10.55;;;5.50;99.90;;;;;;4930444;29;20226;-71
2021/03/04 07:45:54;;;;;;;14.45;7.90;;;5.40;99.90;;;;;;4951786;29;20231;-69
2021/03/04 07:48:21;;;;;;;13.25;9.70;;;5.40;99.90;;;;;;4951193;28;20612;-70
2021/03/04 07:51:00;;;;;;;13.82;10.18;;;5.40;99.90;;;;;;4940642;29;20566;-70
2021/03/04 07:53:27;;;;;;;12.52;9.70;;;5.40;99.90;;;;;;4936697;29;20222;-70
2021/03/04 07:55:53;;;;;;;10.93;8.52;;;5.40;99.90;;;;;;4945327;29;20579;-70
2021/03/04 07:58:20;;;;;;;13.65;9.65;;;5.40;99.90;;;;;;4933864;29;20202;-72
2021/03/04 08:00:47;;;;;;;18.75;9.02;;;5.50;99.90;;;;;;4942365;29;20218;-69
2021/03/04 08:03:14;;;;;;;12.80;8.50;;;5.40;99.90;;;;;;4939658;29;20231;-70
2021/03/04 08:05:43;;;;;;;11.43;8.18;;;5.50;99.90;;;;;;4949726;29;20211;-70
2021/03/04 08:08:12;;;;;;;13.25;9.65;;;5.50;99.90;;;;;;4927000;29;20487;-73
2021/03/04 08:10:49;;;;;;;15.80;9.73;;;5.70;99.90;;;;;;4938908;29;20240;-71
2021/03/04 08:13:16;;;;;;;13.70;8.50;;;5.70;99.90;;;;;;4952416;28;20285;-71
2021/03/04 08:15:44;;;;;;;15.75;9.55;;;5.80;99.90;;;;;;4934994;29;20203;-69
2021/03/04 08:18:18;;;;;;;15.75;10.25;;;5.90;99.90;;;;;;4926132;29;20243;-70
2021/03/04 08:20:46;;;;;;;15.75;9.90;;;6.00;99.90;;;;;;4928089;29;20212;-71
2021/03/04 08:23:14;;;;;;;12.07;9.07;;;5.90;99.90;;;;;;4926932;29;20232;-68
2021/03/04 08:25:42;;;;;;;10.68;9.27;;;5.90;99.90;;;;;;4922913;29;20219;-70
2021/03/04 08:28:09;;;;;;;14.93;9.32;;;5.90;99.90;;;;;;4927614;29;20209;-72
2021/03/04 08:30:38;;;;;;;13.60;9.70;;;6.00;99.90;;;;;;4936153;29;20222;-72
2021/03/04 08:33:07;;;;;;;12.85;8.02;;;6.00;99.90;;;;;;4941118;28;20234;-71
2021/03/04 08:35:36;;;;;;;8.18;7.32;;;5.90;99.90;;;;;;4924295;29;20199;-73
2021/03/04 08:38:08;;;;;;;8.52;7.10;;;6.00;99.90;;;;;;4937310;29;20259;-72
2021/03/04 08:40:39;;;;;;;13.10;7.32;;;6.10;99.90;;;;;;4951007;29;20211;-70
2021/03/04 08:43:10;;;;;;;10.57;7.40;;;6.20;99.90;;;;;;4947192;29;20353;-74
2021/03/04 08:45:37;;;;;;;9.80;7.10;;;6.20;99.90;;;;;;4947605;28;20255;-71
2021/03/04 08:48:06;;;;;;;11.05;7.32;;;6.20;99.90;;;;;;4940855;29;20208;-70
2021/03/04 08:50:34;;;;;;;14.23;8.02;;;6.20;99.90;;;;;;4937048;29;20204;-70
2021/03/04 08:53:02;;;;;;;11.95;7.00;;;6.20;99.90;;;;;;4944080;29;20232;-75
2021/03/04 08:55:29;;;;;;;8.93;7.32;;;6.20;99.90;;;;;;4942820;29;20242;-73
2021/03/04 08:58:06;;;;;;;8.50;6.60;;;6.20;99.90;;;;;;4924326;29;20206;-73
2021/03/04 09:00:33;;;;;;;7.88;6.93;;;6.20;99.90;;;;;;4930255;29;20208;-69
2021/03/04 09:03:08;;;;;;;8.02;6.30;;;6.20;99.90;;;;;;4936437;29;20224;-70
2021/03/04 09:05:35;;;;;;;9.55;6.45;;;6.30;99.90;;;;;;4939380;29;20227;-68
2021/03/04 09:08:07;;;;;;;12.30;7.47;;;6.20;99.90;;;;;;4935309;29;20209;-70
2021/03/04 09:10:50;;;;;;;9.40;7.38;;;6.20;99.90;;;;;;4941894;29;20576;-66
2021/03/04 09:13:21;;;;;;;14.23;6.97;;;6.30;99.90;;;;;;4945301;29;20223;-67
2021/03/04 09:15:51;;;;;;;7.15;5.53;;;6.40;99.90;;;;;;4950781;28;20275;-74
2021/03/04 09:18:20;;;;;;;8.55;6.35;;;6.30;99.90;;;;;;4946454;29;20214;-72
2021/03/04 09:20:48;;;;;;;9.93;6.75;;;6.40;99.90;;;;;;4951949;28;20730;-73
2021/03/04 09:23:15;;;;;;;9.35;6.78;;;6.50;99.90;;;;;;4943312;28;20241;-74
2021/03/04 09:25:43;;;;;;;8.43;6.45;;;6.50;99.90;;;;;;4938439;28;20251;-74
2021/03/04 09:28:15;;;;;;;12.57;6.50;;;6.40;99.90;;;;;;4942629;28;20209;-73
2021/03/04 09:30:42;;;;;;;11.68;6.90;;;6.40;99.90;;;;;;4942241;29;20208;-73
2021/03/04 09:33:20;;;;;;;12.13;8.52;;;6.50;99.90;;;;;;4948441;29;20224;-76
2021/03/04 09:35:55;;;;;;;9.40;6.95;;;6.60;99.90;;;;;;4940561;29;20200;-78
2021/03/04 09:38:21;;;;;;;8.57;6.75;;;6.70;99.90;;;;;;4924876;29;20207;-73
2021/03/04 09:40:48;;;;;;;14.00;6.78;;;6.80;99.90;;;;;;4948229;28;20205;-73
2021/03/04 09:43:17;;;;;;;10.90;6.70;;;6.80;99.90;;;;;;4939714;29;20221;-73
2021/03/04 09:45:48;;;;;;;7.97;6.45;;;6.90;99.90;;;;;;4949816;28;20234;-73
2021/03/04 09:48:15;;;;;;;9.90;6.22;;;7.10;99.90;;;;;;4941818;28;20230;-73
2021/03/04 09:50:52;;;;;;;6.75;5.70;;;7.20;99.90;;;;;;4946047;28;20670;-74
2021/03/04 09:53:19;;;;;;;10.68;6.80;;;7.30;99.90;;;;;;4945271;29;20293;-74
2021/03/04 09:55:46;;;;;;;6.50;5.80;;;7.40;99.90;;;;;;4947300;28;20656;-73
2021/03/04 09:58:15;;;;;;;8.13;6.05;;;7.40;99.90;;;;;;4948957;29;20725;-76
2021/03/04 10:00:42;;;;;;;8.48;6.43;;;7.60;99.90;;;;;;4931938;28;20210;-74
2021/03/04 10:03:11;;;;;;;8.80;6.07;;;7.50;99.90;;;;;;4952183;28;20230;-72
2021/03/04 10:05:49;;;;;;;6.88;5.93;;;7.50;99.90;;;;;;4944473;28;20245;-75
2021/03/04 10:08:17;;;;;;;8.27;6.13;;;7.50;99.90;;;;;;4945099;29;20206;-73
2021/03/04 10:10:45;;;;;;;19.42;9.57;;;7.50;99.90;;;;;;4932473;29;20202;-75
2021/03/04 10:13:12;;;;;;;6.32;5.70;;;7.50;99.90;;;;;;4945855;29;20233;-75
2021/03/04 10:15:55;;;;;;;8.95;5.85;;;7.50;99.90;;;;;;4931776;29;20774;-74
2021/03/04 10:18:21;;;;;;;7.53;6.30;;;7.80;99.90;;;;;;4939190;29;20272;-74
2021/03/04 10:20:48;;;;;;;8.50;6.25;;;7.80;99.90;;;;;;4946089;29;20233;-74
2021/03/04 10:23:16;;;;;;;8.02;6.03;;;7.80;99.90;;;;;;4946576;29;20230;-74
2021/03/04 10:25:43;;;;;;;10.07;6.00;;;7.90;99.90;;;;;;4937626;28;20227;-74
2021/03/04 10:28:10;;;;;;;13.20;7.30;;;8.00;99.90;;;;;;4939777;29;20293;-73
2021/03/04 10:30:39;;;;;;;8.68;6.15;;;8.10;99.90;;;;;;4950161;28;20214;-75
2021/03/04 10:33:07;;;;;;;11.07;6.82;;;8.30;99.90;;;;;;4945056;29;20235;-76
2021/03/04 10:35:35;;;;;;;10.45;7.00;;;8.50;99.90;;;;;;4931580;29;20377;-73
2021/03/04 10:38:01;;;;;;;16.75;8.35;;;8.50;99.90;;;;;;4933149;29;20214;-72
2021/03/04 10:40:28;;;;;;;18.30;8.48;;;8.40;99.90;;;;;;4944715;29;20666;-73
2021/03/04 10:42:55;;;;;;;17.00;8.38;;;8.30;99.90;;;;;;4936791;29;20226;-71
2021/03/04 10:45:21;;;;;;;12.68;7.68;;;8.20;99.90;;;;;;4936635;28;20660;-67
2021/03/04 10:47:48;;;;;;;13.65;7.35;;;8.30;99.90;;;;;;4930515;29;20234;-69
2021/03/04 10:50:20;;;;;;;8.73;6.90;;;8.20;99.90;;;;;;4940629;29;20214;-73
2021/03/04 10:52:47;;;;;;;17.17;8.35;;;8.20;99.90;;;;;;4937175;29;20226;-72
2021/03/04 10:55:17;;;;;;;14.43;9.00;;;8.30;99.90;;;;;;4941664;28;21606;-73
2021/03/04 10:57:44;;;;;;;10.30;7.18;;;8.40;99.90;;;;;;4941876;28;20206;-74
2021/03/04 11:00:12;;;;;;;15.75;9.45;;;8.40;99.90;;;;;;4939299;29;20207;-74
2021/03/04 11:02:39;;;;;;;15.50;8.93;;;8.30;99.90;;;;;;4938889;29;20610;-69
2021/03/04 11:05:07;;;;;;;19.55;10.57;;;8.20;99.90;;;;;;4941312;28;20301;-75
2021/03/04 11:07:36;;;;;;;10.85;8.70;;;8.10;99.90;;;;;;4937924;28;20210;-70
2021/03/04 11:10:05;;;;;;;12.05;9.60;;;8.00;99.90;;;;;;4936820;29;20639;-71
2021/03/04 11:12:31;;;;;;;14.25;8.80;;;7.80;99.90;;;;;;4942333;29;20748;-71
2021/03/04 11:14:58;;;;;;;19.65;11.15;;;7.70;99.90;;;;;;4938924;29;20204;-71
2021/03/04 11:17:36;;;;;;;13.32;9.60;;;7.80;99.90;;;;;;4944158;28;20201;-70
2021/03/04 11:20:04;;;;;;;15.23;10.82;;;7.90;99.90;;;;;;4934870;29;20219;-70
2021/03/04 11:22:32;;;;;;;18.33;9.70;;;8.00;99.90;;;;;;4940960;29;20708;-68
2021/03/04 11:24:59;;;;;;;17.23;9.25;;;8.00;99.90;;;;;;4945967;28;20214;-71
2021/03/04 11:27:26;;;;;;;16.88;9.20;;;8.00;99.90;;;;;;4938860;29;20233;-71
2021/03/04 11:29:52;;;;;;;19.50;10.70;;;7.90;99.90;;;;;;4926552;29;20224;-73
2021/03/04 11:32:19;;;;;;;20.63;10.95;;;7.90;99.90;;;;;;4923907;28;20211;-72
2021/03/04 11:34:46;;;;;;;27.05;12.93;;;7.80;99.90;;;;;;4932954;29;20207;-73
2021/03/04 11:37:12;;;;;;;18.83;9.90;;;7.80;99.90;;;;;;4927106;29;20204;-72
2021/03/04 11:39:39;;;;;;;22.98;10.75;;;7.70;99.90;;;;;;4932458;29;20213;-73
2021/03/04 11:42:07;;;;;;;21.02;10.70;;;7.70;99.90;;;;;;4941161;28;20214;-71
2021/03/04 11:44:34;;;;;;;20.17;9.18;;;7.80;99.90;;;;;;4938978;29;20225;-71
2021/03/04 11:47:00;;;;;;;17.90;10.27;;;7.90;99.90;;;;;;4939074;28;20227;-71
2021/03/04 11:49:27;;;;;;;16.40;10.77;;;7.90;99.90;;;;;;4937678;28;20212;-73
2021/03/04 11:51:54;;;;;;;16.83;10.82;;;7.90;99.90;;;;;;4930430;29;20264;-71
2021/03/04 11:54:21;;;;;;;19.55;10.88;;;8.00;99.90;;;;;;4923624;29;20231;-73
2021/03/04 11:56:48;;;;;;;14.63;9.77;;;8.10;99.90;;;;;;4921594;29;20207;-78
2021/03/04 11:59:15;;;;;;;17.33;7.93;;;8.20;99.90;;;;;;4927964;29;20264;-72
2021/03/04 12:01:42;;;;;;;19.00;9.90;;;8.20;99.90;;;;;;4947211;29;20213;-74
2021/03/04 12:04:09;;;;;;;16.17;8.45;;;8.20;99.90;;;;;;4940192;29;20231;-72
2021/03/04 12:06:35;;;;;;;11.30;7.22;;;8.10;99.90;;;;;;4945533;28;20650;-73
2021/03/04 12:09:03;;;;;;;12.05;8.00;;;8.00;99.90;;;;;;4929519;29;20214;-70
2021/03/04 12:11:29;;;;;;;14.75;8.10;;;8.00;99.90;;;;;;4923985;29;20207;-72
2021/03/04 12:13:56;;;;;;;11.93;8.55;;;8.00;99.90;;;;;;4933504;29;20238;-76
2021/03/04 12:16:24;;;;;;;9.02;7.13;;;8.00;99.90;;;;;;4919127;29;20207;-72
2021/03/04 12:18:51;;;;;;;11.00;7.25;;;8.00;99.90;;;;;;4942908;28;20202;-70
2021/03/04 12:21:18;;;;;;;13.43;7.35;;;8.10;99.90;;;;;;4938308;29;20206;-74
2021/03/04 12:23:45;;;;;;;9.68;7.43;;;8.20;99.90;;;;;;4951869;29;21046;-69
2021/03/04 12:26:12;;;;;;;10.05;7.53;;;8.20;99.90;;;;;;4944189;29;20230;-74
2021/03/04 12:28:39;;;;;;;14.18;7.93;;;8.10;99.90;;;;;;4940728;28;20217;-72
2021/03/04 12:31:05;;;;;;;17.02;8.73;;;8.10;99.90;;;;;;4943585;29;20220;-72
2021/03/04 12:33:33;;;;;;;12.68;7.53;;;7.90;99.90;;;;;;4930818;29;20232;-70
2021/03/04 12:36:00;;;;;;;14.20;8.73;;;7.90;99.90;;;;;;4937394;29;20220;-69
2021/03/04 12:38:26;;;;;;;13.68;8.15;;;7.90;99.90;;;;;;4941941;28;20571;-71
2021/03/04 12:40:53;;;;;;;11.68;8.40;;;7.90;99.90;;;;;;4948389;29;20285;-75
2021/03/04 12:43:20;;;;;;;12.20;8.20;;;7.90;99.90;;;;;;4931279;29;20225;-72
2021/03/04 12:45:47;;;;;;;16.17;8.10;;;7.90;99.90;;;;;;4951630;28;20227;-73
2021/03/04 12:48:14;;;;;;;18.85;6.68;;;7.90;99.90;;;;;;4945480;28;20213;-73